Time;durP1;ratioP1;P1;durP2;ratioP2;P2;SDS_P1;SDS_P2;PMS_P1;PMS_P2;Temp;Humidity;BMP_temperature;BMP_pressure;BME280_temperature;BME280_humidity;BME280_pressure;Samples;Min_cycle;Max_cycle;Signal;HPM_P1;HPM_P2
2021/04/14 00:01:31;;;;;;;5.43;3.83;;;;;;;;;;5093493;28;20900;-55
2021/04/14 00:03:57;;;;;;;4.30;3.40;;;;;;;;;;5093567;28;20438;-55
2021/04/14 00:06:23;;;;;;;7.30;4.70;;;;;;;;;;5093162;28;20246;-55
2021/04/14 00:08:49;;;;;;;6.17;3.60;;;;;;;;;;5093688;28;20787;-55
2021/04/14 00:11:17;;;;;;;4.38;3.92;;;;;;;;;;5093250;28;20944;-54
2021/04/14 00:13:44;;;;;;;9.32;4.30;;;;;;;;;;5093416;28;20534;-55
2021/04/14 00:16:17;;;;;;;4.53;3.80;;;;;;;;;;5093141;28;20232;-56
2021/04/14 00:18:44;;;;;;;4.20;3.80;;;;;;;;;;5093833;28;20182;-54
2021/04/14 00:21:10;;;;;;;5.85;4.32;;;;;;;;;;5093553;28;20172;-56
2021/04/14 00:23:36;;;;;;;6.63;4.05;;;;;;;;;;5093382;28;20169;-55
2021/04/14 00:26:03;;;;;;;6.40;3.95;;;;;;;;;;5093067;28;20256;-55
2021/04/14 00:28:29;;;;;;;4.55;4.10;;;;;;;;;;5093110;28;20228;-54
2021/04/14 00:30:55;;;;;;;6.23;4.07;;;;;;;;;;5093150;28;20197;-54
2021/04/14 00:33:22;;;;;;;6.10;4.17;;;;;;;;;;5093070;28;20476;-54
2021/04/14 00:35:48;;;;;;;4.05;3.60;;;;;;;;;;5093160;28;20406;-54
2021/04/14 00:38:15;;;;;;;4.28;3.90;;;;;;;;;;5093016;28;20184;-55
2021/04/14 00:40:46;;;;;;;4.72;4.32;;;;;;;;;;5092933;28;20177;-55
2021/04/14 00:43:16;;;;;;;4.70;4.05;;;;;;;;;;5092699;28;20606;-55
2021/04/14 00:45:42;;;;;;;4.75;4.15;;;;;;;;;;5092487;28;20166;-54
2021/04/14 00:48:09;;;;;;;6.85;4.35;;;;;;;;;;5092389;28;20170;-55
2021/04/14 00:50:36;;;;;;;6.93;4.10;;;;;;;;;;5092518;28;20169;-56
2021/04/14 00:53:02;;;;;;;6.68;3.60;;;;;;;;;;5092688;28;20161;-55
2021/04/14 00:55:28;;;;;;;5.57;3.97;;;;;;;;;;5092200;28;20275;-56
2021/04/14 00:57:55;;;;;;;4.88;4.13;;;;;;;;;;5092419;28;20189;-55
2021/04/14 01:00:23;;;;;;;4.70;4.30;;;;;;;;;;5092149;28;20271;-54
2021/04/14 01:02:49;;;;;;;5.15;4.20;;;;;;;;;;5091555;28;20239;-54
2021/04/14 01:05:17;;;;;;;5.73;5.00;;;;;;;;;;5091604;28;20629;-54
2021/04/14 01:07:42;;;;;;;6.25;4.35;;;;;;;;;;5090429;28;20411;-55
2021/04/14 01:10:09;;;;;;;5.33;4.83;;;;;;;;;;5090758;28;20193;-54
2021/04/14 01:12:35;;;;;;;6.75;5.20;;;;;;;;;;5092557;28;20869;-54
2021/04/14 01:15:01;;;;;;;7.10;4.68;;;;;;;;;;5091695;28;20200;-53
2021/04/14 01:17:27;;;;;;;8.50;5.20;;;;;;;;;;5092026;28;20165;-55
2021/04/14 01:19:53;;;;;;;6.57;4.73;;;;;;;;;;5091928;28;20185;-53
2021/04/14 01:22:19;;;;;;;5.20;4.60;;;;;;;;;;5091910;28;20506;-56
2021/04/14 01:24:45;;;;;;;8.90;4.90;;;;;;;;;;5091849;28;20879;-54
2021/04/14 01:27:11;;;;;;;6.50;4.60;;;;;;;;;;5091558;28;20260;-54
2021/04/14 01:29:37;;;;;;;6.40;4.70;;;;;;;;;;5091846;28;20411;-54
2021/04/14 01:32:03;;;;;;;5.38;4.35;;;;;;;;;;5091566;28;20447;-55
2021/04/14 01:34:29;;;;;;;5.93;5.13;;;;;;;;;;5091818;28;20161;-55
2021/04/14 01:36:55;;;;;;;5.87;4.60;;;;;;;;;;5091375;28;20180;-54
2021/04/14 01:39:21;;;;;;;7.53;5.07;;;;;;;;;;5091757;28;20472;-55
2021/04/14 01:41:47;;;;;;;6.05;4.55;;;;;;;;;;5091628;28;20890;-55
2021/04/14 01:44:13;;;;;;;4.65;4.20;;;;;;;;;;5091691;28;20188;-54
2021/04/14 01:46:39;;;;;;;8.23;4.83;;;;;;;;;;5091235;28;20176;-54
2021/04/14 01:49:06;;;;;;;7.13;4.43;;;;;;;;;;5091674;28;20419;-55
2021/04/14 01:51:32;;;;;;;5.20;4.80;;;;;;;;;;5091578;28;20198;-54
2021/04/14 01:53:58;;;;;;;5.88;4.93;;;;;;;;;;5091417;28;20252;-55
2021/04/14 01:56:24;;;;;;;8.60;5.20;;;;;;;;;;5091357;28;20205;-55
2021/04/14 01:58:50;;;;;;;6.87;5.40;;;;;;;;;;5091116;28;20443;-55
2021/04/14 02:01:16;;;;;;;7.60;4.88;;;;;;;;;;5091417;28;20959;-55
2021/04/14 02:03:42;;;;;;;5.65;5.15;;;;;;;;;;5090957;28;20204;-55
2021/04/14 02:06:10;;;;;;;8.30;5.50;;;;;;;;;;5091228;28;20193;-55
2021/04/14 02:08:36;;;;;;;6.85;4.70;;;;;;;;;;5091126;28;20473;-54
2021/04/14 02:11:02;;;;;;;5.87;5.00;;;;;;;;;;5091351;28;20186;-55
2021/04/14 02:13:32;;;;;;;9.68;5.55;;;;;;;;;;5091204;28;20387;-54
2021/04/14 02:15:59;;;;;;;6.07;4.78;;;;;;;;;;5091282;28;20165;-55
2021/04/14 02:18:25;;;;;;;10.90;5.65;;;;;;;;;;5091203;28;20204;-55
2021/04/14 02:20:52;;;;;;;10.50;5.80;;;;;;;;;;5091243;28;20204;-54
2021/04/14 02:23:26;;;;;;;9.48;5.70;;;;;;;;;;5091826;28;20579;-54
2021/04/14 02:25:56;;;;;;;12.02;6.45;;;;;;;;;;5090886;28;20173;-54
2021/04/14 02:28:22;;;;;;;7.10;5.82;;;;;;;;;;5091117;28;20192;-55
2021/04/14 02:30:48;;;;;;;6.45;5.28;;;;;;;;;;5090945;28;20184;-56
2021/04/14 02:33:14;;;;;;;6.55;5.93;;;;;;;;;;5091009;28;20586;-55
2021/04/14 02:35:40;;;;;;;10.00;6.60;;;;;;;;;;5090856;28;20166;-55
2021/04/14 02:38:06;;;;;;;6.57;5.60;;;;;;;;;;5090819;28;20945;-55
2021/04/14 02:40:33;;;;;;;9.80;5.93;;;;;;;;;;5090674;28;20805;-54
2021/04/14 02:42:59;;;;;;;17.95;6.40;;;;;;;;;;5090809;28;20172;-55
2021/04/14 02:45:28;;;;;;;8.55;5.65;;;;;;;;;;5090443;28;20166;-56
2021/04/14 02:47:54;;;;;;;6.82;6.10;;;;;;;;;;5090782;28;20252;-56
2021/04/14 02:50:20;;;;;;;6.00;5.13;;;;;;;;;;5090565;28;20315;-55
2021/04/14 02:52:46;;;;;;;8.27;5.27;;;;;;;;;;5090743;28;20447;-56
2021/04/14 02:55:13;;;;;;;12.18;6.03;;;;;;;;;;5090554;28;20420;-54
2021/04/14 02:57:39;;;;;;;11.77;5.90;;;;;;;;;;5090769;28;20551;-55
2021/04/14 03:00:06;;;;;;;8.27;6.45;;;;;;;;;;5090763;28;20211;-55
2021/04/14 03:02:32;;;;;;;6.57;5.97;;;;;;;;;;5090537;28;20227;-55
2021/04/14 03:04:59;;;;;;;6.07;5.57;;;;;;;;;;5090387;28;20192;-55
2021/04/14 03:07:25;;;;;;;6.43;5.35;;;;;;;;;;5090474;28;20264;-55
2021/04/14 03:09:51;;;;;;;8.97;6.10;;;;;;;;;;5090553;28;20619;-55
2021/04/14 03:12:17;;;;;;;13.63;6.00;;;;;;;;;;5090323;28;20458;-55
2021/04/14 03:14:44;;;;;;;8.27;6.40;;;;;;;;;;5090529;28;20403;-54
2021/04/14 03:17:09;;;;;;;6.70;6.10;;;;;;;;;;5092605;28;20399;-55
2021/04/14 03:19:36;;;;;;;11.73;6.87;;;;;;;;;;5094382;28;20214;-55
2021/04/14 03:22:02;;;;;;;10.48;7.57;;;;;;;;;;5094439;28;20487;-54
2021/04/14 03:24:28;;;;;;;13.55;8.68;;;;;;;;;;5094268;28;20176;-56
2021/04/14 03:26:54;;;;;;;12.80;9.30;;;;;;;;;;5094232;28;20351;-55
2021/04/14 03:29:20;;;;;;;11.97;8.73;;;;;;;;;;5094182;28;20423;-55
2021/04/14 03:31:46;;;;;;;15.03;8.63;;;;;;;;;;5094285;28;20469;-56
2021/04/14 03:34:12;;;;;;;13.57;8.60;;;;;;;;;;5094109;28;20403;-56
2021/04/14 03:36:38;;;;;;;17.20;8.90;;;;;;;;;;5093906;28;20207;-56
2021/04/14 03:39:05;;;;;;;10.38;7.43;;;;;;;;;;5093884;28;20416;-55
2021/04/14 03:41:31;;;;;;;24.08;8.00;;;;;;;;;;5094075;28;20277;-55
2021/04/14 03:43:57;;;;;;;10.48;6.85;;;;;;;;;;5093970;28;20625;-55
2021/04/14 03:46:24;;;;;;;7.10;6.40;;;;;;;;;;5093728;28;20173;-55
2021/04/14 03:48:50;;;;;;;9.15;6.75;;;;;;;;;;5093617;28;20208;-55
2021/04/14 03:51:16;;;;;;;11.60;6.72;;;;;;;;;;5093686;28;20193;-54
2021/04/14 03:53:43;;;;;;;12.10;6.93;;;;;;;;;;5093637;28;20166;-54
2021/04/14 03:56:13;;;;;;;8.50;6.57;;;;;;;;;;5093600;28;20193;-55
2021/04/14 03:58:41;;;;;;;13.18;7.60;;;;;;;;;;5093580;28;20199;-56
2021/04/14 04:01:12;;;;;;;9.27;6.85;;;;;;;;;;5093942;28;20180;-55
2021/04/14 04:03:39;;;;;;;11.45;7.53;;;;;;;;;;5093647;28;20184;-54
2021/04/14 04:06:05;;;;;;;9.38;6.68;;;;;;;;;;5093755;28;20174;-54
2021/04/14 04:08:31;;;;;;;10.63;7.13;;;;;;;;;;5093585;28;20185;-54
2021/04/14 04:10:57;;;;;;;10.88;6.93;;;;;;;;;;5093389;28;20399;-54
2021/04/14 04:13:23;;;;;;;14.63;7.30;;;;;;;;;;5093611;28;20161;-54
2021/04/14 04:15:49;;;;;;;7.10;6.20;;;;;;;;;;5093108;28;20450;-54
2021/04/14 04:18:15;;;;;;;11.07;6.83;;;;;;;;;;5093802;28;20403;-54
2021/04/14 04:20:41;;;;;;;10.13;6.85;;;;;;;;;;5093210;28;20395;-55
2021/04/14 04:23:08;;;;;;;8.60;6.20;;;;;;;;;;5093062;28;20668;-55
2021/04/14 04:25:34;;;;;;;7.30;6.30;;;;;;;;;;5092921;28;20208;-56
2021/04/14 04:28:00;;;;;;;12.75;7.13;;;;;;;;;;5092509;28;20192;-55
2021/04/14 04:30:27;;;;;;;12.40;7.65;;;;;;;;;;5093152;28;20188;-55
2021/04/14 04:32:53;;;;;;;8.20;6.57;;;;;;;;;;5092673;28;20197;-54
2021/04/14 04:35:20;;;;;;;11.07;7.80;;;;;;;;;;5092653;28;20162;-55
2021/04/14 04:37:46;;;;;;;9.98;7.30;;;;;;;;;;5092756;28;20219;-54
2021/04/14 04:40:12;;;;;;;10.27;6.45;;;;;;;;;;5092878;28;20195;-54
2021/04/14 04:42:38;;;;;;;14.93;6.90;;;;;;;;;;5092837;28;20172;-55
2021/04/14 04:45:05;;;;;;;10.82;6.22;;;;;;;;;;5092664;28;20169;-54
2021/04/14 04:47:31;;;;;;;14.82;7.30;;;;;;;;;;5092728;28;20192;-54
2021/04/14 04:49:57;;;;;;;11.00;7.97;;;;;;;;;;5092506;28;20197;-54
2021/04/14 04:52:23;;;;;;;11.88;6.15;;;;;;;;;;5092514;28;20484;-55
2021/04/14 04:54:49;;;;;;;8.07;6.45;;;;;;;;;;5092460;28;20193;-55
2021/04/14 04:57:15;;;;;;;11.60;6.97;;;;;;;;;;5092298;28;20166;-54
2021/04/14 04:59:41;;;;;;;10.43;7.50;;;;;;;;;;5092173;28;20665;-54
2021/04/14 05:02:07;;;;;;;41.60;9.30;;;;;;;;;;5091202;28;20414;-55
2021/04/14 05:04:33;;;;;;;25.60;10.63;;;;;;;;;;5092153;28;20469;-54
2021/04/14 05:06:59;;;;;;;27.17;10.83;;;;;;;;;;5092092;28;20276;-54
2021/04/14 05:09:25;;;;;;;24.38;11.77;;;;;;;;;;5092628;28;20503;-52
2021/04/14 05:11:52;;;;;;;17.43;11.17;;;;;;;;;;5092063;28;20783;-52
2021/04/14 05:14:17;;;;;;;23.60;11.93;;;;;;;;;;5091891;28;20906;-52
2021/04/14 05:16:44;;;;;;;21.57;10.33;;;;;;;;;;5091788;28;20165;-52
2021/04/14 05:19:09;;;;;;;24.55;11.32;;;;;;;;;;5091846;28;20507;-53
2021/04/14 05:21:38;;;;;;;17.27;10.30;;;;;;;;;;5091828;28;20693;-54
2021/04/14 05:24:04;;;;;;;21.67;10.85;;;;;;;;;;5091937;28;20403;-54
2021/04/14 05:26:30;;;;;;;18.25;10.90;;;;;;;;;;5091549;28;20645;-54
2021/04/14 05:28:56;;;;;;;26.45;11.05;;;;;;;;;;5091803;28;20223;-53
2021/04/14 05:31:29;;;;;;;15.23;8.70;;;;;;;;;;5091560;28;20277;-54
2021/04/14 05:33:55;;;;;;;17.45;8.23;;;;;;;;;;5092214;28;20173;-54
2021/04/14 05:36:21;;;;;;;13.05;9.60;;;;;;;;;;5091311;28;20161;-54
2021/04/14 05:38:47;;;;;;;11.73;8.60;;;;;;;;;;5091033;28;20678;-55
2021/04/14 05:41:12;;;;;;;11.63;7.60;;;;;;;;;;5091466;28;20453;-52
2021/04/14 05:43:39;;;;;;;14.57;8.43;;;;;;;;;;5091675;28;20416;-53
2021/04/14 05:46:07;;;;;;;17.33;8.23;;;;;;;;;;5091092;28;20452;-52
2021/04/14 05:48:33;;;;;;;8.23;6.78;;;;;;;;;;5091603;28;20281;-53
2021/04/14 05:51:04;;;;;;;9.52;7.93;;;;;;;;;;5091457;28;20166;-52
2021/04/14 05:53:30;;;;;;;14.18;8.98;;;;;;;;;;5091489;28;20165;-52
2021/04/14 05:55:56;;;;;;;9.10;7.67;;;;;;;;;;5091184;28;20296;-52
2021/04/14 05:58:22;;;;;;;11.93;7.07;;;;;;;;;;5091053;28;20426;-52
2021/04/14 06:00:48;;;;;;;11.50;8.07;;;;;;;;;;5091185;28;20400;-52
2021/04/14 06:03:14;;;;;;;13.13;7.80;;;;;;;;;;5091270;28;20879;-53
2021/04/14 06:05:39;;;;;;;9.30;8.10;;;;;;;;;;5091391;28;20173;-54
2021/04/14 06:08:06;;;;;;;16.10;7.70;;;;;;;;;;5091313;28;20484;-56
2021/04/14 06:10:32;;;;;;;11.43;8.68;;;;;;;;;;5091251;28;20911;-54
2021/04/14 06:12:58;;;;;;;14.43;8.70;;;;;;;;;;5090989;28;20217;-55
2021/04/14 06:15:26;;;;;;;16.70;9.10;;;;;;;;;;5090825;28;20740;-54
2021/04/14 06:17:52;;;;;;;10.50;8.38;;;;;;;;;;5091115;28;20396;-56
2021/04/14 06:20:20;;;;;;;14.43;8.85;;;;;;;;;;5090799;28;20268;-53
2021/04/14 06:22:46;;;;;;;10.52;8.25;;;;;;;;;;5090489;28;20166;-55
2021/04/14 06:25:16;;;;;;;11.30;9.60;;;;;;;;;;5089959;28;20645;-56
2021/04/14 06:30:23;;;;;;;10.00;8.93;;;;;;;;;;5090196;28;20189;-52
2021/04/14 06:32:49;;;;;;;14.05;8.43;;;;;;;;;;5090310;28;20223;-52
2021/04/14 06:35:16;;;;;;;10.20;9.20;;;;;;;;;;5089901;28;20517;-53
2021/04/14 06:37:42;;;;;;;15.02;8.02;;;;;;;;;;5089002;28;20551;-52
2021/04/14 06:43:11;;;;;;;10.68;8.18;;;;;;;;;;5090575;28;20648;-52
2021/04/14 06:45:40;;;;;;;14.52;9.05;;;;;;;;;;5090368;28;20234;-52
2021/04/14 06:48:10;;;;;;;12.25;7.68;;;;;;;;;;5091018;28;20173;-55
2021/04/14 06:50:54;;;;;;;9.38;7.28;;;;;;;;;;5091940;28;20545;-52
2021/04/14 06:53:20;;;;;;;9.60;7.95;;;;;;;;;;5093519;28;20180;-55
2021/04/14 06:55:55;;;;;;;12.73;7.60;;;;;;;;;;5094374;28;20166;-52
2021/04/14 06:58:23;;;;;;;11.60;7.85;;;;;;;;;;5094605;28;20472;-53
2021/04/14 07:00:56;;;;;;;15.30;8.90;;;;;;;;;;5094682;28;20242;-55
2021/04/14 07:03:25;;;;;;;12.13;8.43;;;;;;;;;;5094564;28;20649;-52
2021/04/14 07:05:56;;;;;;;13.07;7.68;;;;;;;;;;5094406;28;20193;-52
2021/04/14 07:08:25;;;;;;;15.05;9.60;;;;;;;;;;5094306;28;20181;-53
2021/04/14 07:10:54;;;;;;;13.20;8.75;;;;;;;;;;5094792;28;20580;-53
2021/04/14 07:13:20;;;;;;;15.32;8.23;;;;;;;;;;5094377;28;20196;-53
2021/04/14 07:15:49;;;;;;;8.35;7.43;;;;;;;;;;5094027;28;20625;-53
2021/04/14 07:18:24;;;;;;;11.93;7.18;;;;;;;;;;5095305;28;20629;-55
2021/04/14 07:21:09;;;;;;;17.40;8.00;;;;;;;;;;5094600;28;20520;-55
2021/04/14 07:23:50;;;;;;;15.77;7.20;;;;;;;;;;5094098;28;20428;-55
2021/04/14 07:26:20;;;;;;;11.50;6.20;;;;;;;;;;5093928;28;20398;-56
2021/04/14 07:28:59;;;;;;;7.17;5.50;;;;;;;;;;5094077;28;20403;-57
2021/04/14 07:31:25;;;;;;;6.73;5.73;;;;;;;;;;5094164;28;20534;-56
2021/04/14 07:34:10;;;;;;;7.47;6.13;;;;;;;;;;5093888;28;20432;-55
2021/04/14 07:36:39;;;;;;;8.20;6.50;;;;;;;;;;5093676;28;20408;-56
2021/04/14 07:39:18;;;;;;;7.47;6.60;;;;;;;;;;5093891;28;20406;-57
2021/04/14 07:42:03;;;;;;;10.03;6.97;;;;;;;;;;5093952;28;20387;-56
2021/04/14 07:44:29;;;;;;;11.73;6.03;;;;;;;;;;5093767;28;20406;-56
2021/04/14 07:46:55;;;;;;;13.30;5.53;;;;;;;;;;5093516;28;20399;-56
2021/04/14 07:49:21;;;;;;;13.23;6.90;;;;;;;;;;5093649;28;20446;-57
2021/04/14 07:51:47;;;;;;;10.23;6.50;;;;;;;;;;5093772;28;20454;-57
2021/04/14 07:54:17;;;;;;;11.63;7.50;;;;;;;;;;5093676;28;20407;-56
2021/04/14 07:56:48;;;;;;;11.93;6.30;;;;;;;;;;5093532;28;20395;-56
2021/04/14 07:59:27;;;;;;;9.47;6.57;;;;;;;;;;5093288;28;20498;-56
2021/04/14 08:01:56;;;;;;;9.40;6.90;;;;;;;;;;5093069;28;20453;-56
2021/04/14 08:04:37;;;;;;;10.50;6.57;;;;;;;;;;5093302;28;20399;-55
2021/04/14 08:07:08;;;;;;;14.57;7.20;;;;;;;;;;5093249;28;20798;-55
2021/04/14 08:09:34;;;;;;;6.60;5.90;;;;;;;;;;5093178;28;20929;-56
2021/04/14 08:12:07;;;;;;;14.53;7.80;;;;;;;;;;5093182;28;20484;-54
2021/04/14 08:14:35;;;;;;;17.07;6.90;;;;;;;;;;5093242;28;20444;-55
2021/04/14 08:17:11;;;;;;;7.03;6.37;;;;;;;;;;5093534;28;20456;-55
2021/04/14 08:19:37;;;;;;;9.70;7.70;;;;;;;;;;5093285;28;20422;-55
2021/04/14 08:22:05;;;;;;;9.70;7.50;;;;;;;;;;5104066;28;20415;-55
2021/04/14 08:24:33;;;;;;;12.07;7.90;;;;;;;;;;5072697;28;20825;-55
2021/04/14 08:27:23;;;;;;;14.53;8.90;;;;;;;;;;5082173;28;20437;-56
2021/04/14 08:30:08;;;;;;;13.13;8.33;;;;;;;;;;5080872;28;20430;-55
2021/04/14 08:32:40;;;;;;;12.00;8.10;;;;;;;;;;5092759;28;20817;-55
2021/04/14 08:35:29;;;;;;;15.17;7.80;;;;;;;;;;5074282;28;20425;-54
2021/04/14 08:38:07;;;;;;;10.83;8.53;;;;;;;;;;5079914;28;20419;-55
2021/04/14 08:40:45;;;;;;;16.63;8.60;;;;;;;;;;5092738;28;20463;-55
2021/04/14 08:43:12;;;;;;;10.33;8.20;;;;;;;;;;5092296;28;20410;-56
2021/04/14 08:45:44;;;;;;;10.10;7.57;;;;;;;;;;5092353;28;20400;-55
2021/04/14 08:48:19;;;;;;;10.20;6.87;;;;;;;;;;5092273;28;20817;-56
2021/04/14 08:50:48;;;;;;;6.30;5.47;;;;;;;;;;5092363;28;20440;-55
2021/04/14 08:53:15;;;;;;;6.20;5.60;;;;;;;;;;5092141;28;20544;-56
2021/04/14 08:55:42;;;;;;;8.77;5.37;;;;;;;;;;5092075;28;20827;-56
2021/04/14 08:58:08;;;;;;;6.70;4.93;;;;;;;;;;5091947;28;20885;-55
2021/04/14 09:00:35;;;;;;;6.47;5.50;;;;;;;;;;5091934;28;20400;-56
2021/04/14 09:03:03;;;;;;;5.60;5.10;;;;;;;;;;5092242;28;20423;-56
2021/04/14 09:05:29;;;;;;;9.80;5.30;;;;;;;;;;5091909;28;20402;-55
2021/04/14 09:07:55;;;;;;;6.20;5.60;;;;;;;;;;5091976;28;20414;-56
2021/04/14 09:10:40;;;;;;;7.90;6.00;;;;;;;;;;5091649;28;20424;-55
2021/04/14 09:13:07;;;;;;;17.17;6.63;;;;;;;;;;5091705;28;20462;-55
2021/04/14 09:15:46;;;;;;;13.27;6.57;;;;;;;;;;5073437;28;20434;-55
2021/04/14 09:18:12;;;;;;;7.97;6.17;;;;;;;;;;5091905;28;20490;-53
2021/04/14 09:20:38;;;;;;;9.07;5.70;;;;;;;;;;5092282;28;20494;-53
2021/04/14 09:23:07;;;;;;;11.67;5.07;;;;;;;;;;5091729;28;20374;-52
2021/04/14 09:25:44;;;;;;;10.97;6.70;;;;;;;;;;5091955;28;20427;-53
2021/04/14 09:28:26;;;;;;;7.13;5.77;;;;;;;;;;5105241;28;20397;-54
2021/04/14 09:30:54;;;;;;;8.10;6.80;;;;;;;;;;5092126;28;20432;-55
2021/04/14 09:33:22;;;;;;;8.93;7.03;;;;;;;;;;5091271;28;20455;-53
2021/04/14 09:35:51;;;;;;;9.53;6.77;;;;;;;;;;5091582;28;20441;-55
2021/04/14 09:38:37;;;;;;;12.97;7.20;;;;;;;;;;5091051;28;20862;-52
2021/04/14 09:41:26;;;;;;;7.13;6.43;;;;;;;;;;5091479;28;20407;-53
2021/04/14 09:43:53;;;;;;;7.93;5.97;;;;;;;;;;5085872;28;20518;-55
2021/04/14 09:46:38;;;;;;;8.30;6.80;;;;;;;;;;5091327;28;20403;-53
2021/04/14 09:49:10;;;;;;;7.50;6.80;;;;;;;;;;5091019;28;20460;-54
2021/04/14 09:51:37;;;;;;;12.03;7.97;;;;;;;;;;5091314;28;20453;-52
2021/04/14 09:54:08;;;;;;;14.20;7.80;;;;;;;;;;5091189;28;20514;-53
2021/04/14 09:56:34;;;;;;;11.33;7.43;;;;;;;;;;5091013;28;20844;-52
2021/04/14 09:59:07;;;;;;;8.63;7.70;;;;;;;;;;5091316;28;20458;-53
2021/04/14 10:01:35;;;;;;;11.80;8.10;;;;;;;;;;5091283;28;20408;-53
2021/04/14 10:04:06;;;;;;;8.90;7.20;;;;;;;;;;5091590;28;20410;-56
2021/04/14 10:06:33;;;;;;;10.47;7.07;;;;;;;;;;5090874;28;20878;-53
2021/04/14 10:09:07;;;;;;;7.67;6.97;;;;;;;;;;5091649;28;20762;-53
2021/04/14 10:11:35;;;;;;;8.30;7.53;;;;;;;;;;5091168;28;20425;-53
2021/04/14 10:14:08;;;;;;;7.67;6.70;;;;;;;;;;5091311;28;20396;-52
2021/04/14 10:16:34;;;;;;;12.30;7.30;;;;;;;;;;5090914;28;20864;-52
2021/04/14 10:19:04;;;;;;;8.00;7.20;;;;;;;;;;5090582;28;20415;-52
2021/04/14 10:21:31;;;;;;;7.70;6.80;;;;;;;;;;5091049;28;20407;-53
2021/04/14 10:24:02;;;;;;;9.60;7.40;;;;;;;;;;5090745;28;21025;-52
2021/04/14 10:26:29;;;;;;;18.03;7.90;;;;;;;;;;5090249;28;20435;-55
2021/04/14 10:28:55;;;;;;;11.37;7.33;;;;;;;;;;5090513;28;20457;-52
2021/04/14 10:31:22;;;;;;;8.43;7.23;;;;;;;;;;5090757;28;20476;-52
2021/04/14 10:33:49;;;;;;;10.63;8.60;;;;;;;;;;5090548;28;20407;-52
2021/04/14 10:36:29;;;;;;;10.30;7.80;;;;;;;;;;5090660;28;20486;-52
2021/04/14 10:38:55;;;;;;;13.13;7.87;;;;;;;;;;5090833;28;20416;-52
2021/04/14 10:41:23;;;;;;;14.10;8.00;;;;;;;;;;5090723;28;20422;-54
2021/04/14 10:43:50;;;;;;;9.73;7.67;;;;;;;;;;5090721;28;20890;-53
2021/04/14 10:46:19;;;;;;;9.20;6.57;;;;;;;;;;5090360;28;20775;-53
2021/04/14 10:48:47;;;;;;;8.60;7.50;;;;;;;;;;5090543;28;20919;-52
2021/04/14 10:51:18;;;;;;;9.20;7.17;;;;;;;;;;5090401;28;20415;-53
2021/04/14 10:53:45;;;;;;;11.10;8.20;;;;;;;;;;5090668;28;20433;-53
2021/04/14 10:56:16;;;;;;;11.67;7.93;;;;;;;;;;5090225;28;20461;-53
2021/04/14 10:58:42;;;;;;;14.23;7.40;;;;;;;;;;5090304;28;20440;-53
2021/04/14 11:01:16;;;;;;;10.67;8.17;;;;;;;;;;5090557;28;20431;-54
2021/04/14 11:03:44;;;;;;;11.83;6.80;;;;;;;;;;5090391;28;20459;-53
2021/04/14 11:06:10;;;;;;;10.70;6.30;;;;;;;;;;5090200;28;20953;-52
2021/04/14 11:08:37;;;;;;;8.40;5.90;;;;;;;;;;5090252;28;20416;-53
2021/04/14 11:11:03;;;;;;;9.10;5.80;;;;;;;;;;5090803;28;20404;-55
2021/04/14 11:13:31;;;;;;;6.50;5.80;;;;;;;;;;5090492;28;20403;-54
2021/04/14 11:15:58;;;;;;;7.37;5.50;;;;;;;;;;5090368;28;20428;-54
2021/04/14 11:18:34;;;;;;;7.87;7.10;;;;;;;;;;5090266;28;20425;-55
2021/04/14 11:21:09;;;;;;;8.37;6.50;;;;;;;;;;5090523;28;20399;-55
2021/04/14 11:23:39;;;;;;;16.40;8.13;;;;;;;;;;5090242;28;20478;-55
2021/04/14 11:26:11;;;;;;;8.30;6.57;;;;;;;;;;5090245;28;20433;-56
2021/04/14 11:28:39;;;;;;;12.00;8.27;;;;;;;;;;5090215;28;20477;-55
2021/04/14 11:31:06;;;;;;;7.77;6.80;;;;;;;;;;5090378;28;20411;-55
2021/04/14 11:33:40;;;;;;;8.33;7.17;;;;;;;;;;5090289;28;20399;-56
2021/04/14 11:36:17;;;;;;;7.27;6.57;;;;;;;;;;5089898;28;20394;-57
2021/04/14 11:38:43;;;;;;;9.50;8.50;;;;;;;;;;5093338;28;20946;-55
2021/04/14 11:41:21;;;;;;;8.83;6.97;;;;;;;;;;5093813;28;20401;-56
2021/04/14 11:43:47;;;;;;;7.40;6.70;;;;;;;;;;5093908;28;20887;-56
2021/04/14 11:46:25;;;;;;;8.60;7.03;;;;;;;;;;5093035;28;20429;-56
2021/04/14 11:48:56;;;;;;;7.53;6.20;;;;;;;;;;5093706;28;20888;-56
2021/04/14 11:51:33;;;;;;;8.10;7.30;;;;;;;;;;5093784;28;20459;-57
2021/04/14 11:54:01;;;;;;;7.87;6.97;;;;;;;;;;5092121;28;20389;-56
2021/04/14 11:56:38;;;;;;;10.83;6.03;;;;;;;;;;5093055;28;20451;-56
2021/04/14 11:59:05;;;;;;;10.33;5.63;;;;;;;;;;5093358;28;20439;-55
2021/04/14 12:01:33;;;;;;;7.80;6.70;;;;;;;;;;5093824;28;20407;-56
2021/04/14 12:04:09;;;;;;;6.67;6.03;;;;;;;;;;5093425;28;20971;-55
2021/04/14 12:06:36;;;;;;;6.60;5.90;;;;;;;;;;5093246;28;20429;-54
2021/04/14 12:09:02;;;;;;;7.10;6.40;;;;;;;;;;5093637;28;20562;-55
2021/04/14 12:11:27;;;;;;;5.93;5.40;;;;;;;;;;5093255;28;20454;-54
2021/04/14 12:13:54;;;;;;;8.70;6.17;;;;;;;;;;5093196;28;20857;-56
2021/04/14 12:16:20;;;;;;;6.47;5.47;;;;;;;;;;5093062;28;20641;-54
2021/04/14 12:18:46;;;;;;;7.40;5.57;;;;;;;;;;5092869;28;20871;-55
2021/04/14 12:21:12;;;;;;;9.37;5.80;;;;;;;;;;5093058;28;20436;-55
2021/04/14 12:23:38;;;;;;;4.93;4.40;;;;;;;;;;5093075;28;20437;-54
2021/04/14 12:26:04;;;;;;;4.00;3.70;;;;;;;;;;5092630;28;20410;-55
2021/04/14 12:28:30;;;;;;;10.70;4.87;;;;;;;;;;5092897;28;20433;-55
2021/04/14 12:30:56;;;;;;;7.03;4.70;;;;;;;;;;5093261;28;20501;-52
2021/04/14 12:33:22;;;;;;;6.80;5.20;;;;;;;;;;5092749;28;20551;-53
2021/04/14 12:35:48;;;;;;;5.13;4.73;;;;;;;;;;5092314;28;20411;-54
2021/04/14 12:38:15;;;;;;;5.67;4.30;;;;;;;;;;5092674;28;20408;-53
2021/04/14 12:40:41;;;;;;;4.13;3.83;;;;;;;;;;5092317;28;20455;-55
2021/04/14 12:43:07;;;;;;;5.23;4.30;;;;;;;;;;5092680;28;20486;-53
2021/04/14 12:45:36;;;;;;;5.60;4.13;;;;;;;;;;5092368;28;20411;-53
2021/04/14 12:48:02;;;;;;;5.33;4.83;;;;;;;;;;5092091;28;20941;-53
2021/04/14 12:50:28;;;;;;;6.43;5.93;;;;;;;;;;5092464;28;20470;-56
2021/04/14 12:52:56;;;;;;;5.60;5.10;;;;;;;;;;5092137;28;20486;-57
2021/04/14 12:55:24;;;;;;;5.40;4.90;;;;;;;;;;5092030;28;20380;-53
2021/04/14 12:57:50;;;;;;;5.80;5.30;;;;;;;;;;5092233;28;20371;-55
2021/04/14 13:00:21;;;;;;;4.67;4.30;;;;;;;;;;5092153;28;20443;-55
2021/04/14 13:02:49;;;;;;;6.50;4.73;;;;;;;;;;5092260;28;20422;-55
2021/04/14 13:05:24;;;;;;;5.83;4.47;;;;;;;;;;5091826;28;20455;-54
2021/04/14 13:07:59;;;;;;;5.80;4.53;;;;;;;;;;5092055;28;20385;-53
2021/04/14 13:10:28;;;;;;;8.00;4.80;;;;;;;;;;5092032;28;20737;-54
2021/04/14 13:12:54;;;;;;;5.13;4.73;;;;;;;;;;5092060;28;20437;-54
2021/04/14 13:15:39;;;;;;;4.53;4.13;;;;;;;;;;5091385;28;20406;-55
2021/04/14 13:18:05;;;;;;;5.33;4.60;;;;;;;;;;5091753;28;20729;-55
2021/04/14 13:20:31;;;;;;;5.13;4.63;;;;;;;;;;5091549;28;20458;-56
2021/04/14 13:23:00;;;;;;;4.73;4.30;;;;;;;;;;5091897;28;20969;-56
2021/04/14 13:25:32;;;;;;;5.37;4.73;;;;;;;;;;5091491;28;20882;-53
2021/04/14 13:28:00;;;;;;;5.07;4.43;;;;;;;;;;5091874;28;20379;-53
2021/04/14 13:30:30;;;;;;;5.37;4.97;;;;;;;;;;5091710;28;20398;-53
2021/04/14 13:33:04;;;;;;;5.30;4.90;;;;;;;;;;5091334;28;20508;-53
2021/04/14 13:35:33;;;;;;;4.83;4.43;;;;;;;;;;5091393;28;20378;-53
2021/04/14 13:38:11;;;;;;;5.50;5.10;;;;;;;;;;5091451;28;20379;-55
2021/04/14 13:40:40;;;;;;;5.20;4.23;;;;;;;;;;5073420;28;20451;-53
2021/04/14 13:43:07;;;;;;;4.37;4.00;;;;;;;;;;5091589;28;20751;-54
2021/04/14 13:45:33;;;;;;;7.47;4.63;;;;;;;;;;5091557;28;20415;-55
2021/04/14 13:48:10;;;;;;;5.40;4.00;;;;;;;;;;5091336;28;20839;-52
2021/04/14 13:50:50;;;;;;;4.13;3.77;;;;;;;;;;5091371;28;20415;-55
2021/04/14 13:53:16;;;;;;;4.30;3.90;;;;;;;;;;5091234;28;20879;-54
2021/04/14 13:55:43;;;;;;;4.33;4.03;;;;;;;;;;5090899;28;20397;-54
2021/04/14 13:58:09;;;;;;;5.03;4.53;;;;;;;;;;5091322;28;20403;-52
2021/04/14 14:00:49;;;;;;;4.53;3.63;;;;;;;;;;5090643;28;20486;-52
2021/04/14 14:03:16;;;;;;;4.13;3.70;;;;;;;;;;5091245;28;20847;-52
2021/04/14 14:05:42;;;;;;;7.00;3.57;;;;;;;;;;5090506;28;20467;-52
2021/04/14 14:08:10;;;;;;;8.83;4.93;;;;;;;;;;5090762;28;20810;-52
2021/04/14 14:10:39;;;;;;;3.33;3.03;;;;;;;;;;5090814;28;20950;-52
2021/04/14 14:13:20;;;;;;;3.37;3.07;;;;;;;;;;5090890;28;20506;-52
2021/04/14 14:15:55;;;;;;;4.77;3.13;;;;;;;;;;5090633;28;20403;-55
2021/04/14 14:18:21;;;;;;;3.33;3.03;;;;;;;;;;5090869;28;20395;-55
2021/04/14 14:20:48;;;;;;;4.73;3.30;;;;;;;;;;5090772;28;20396;-55
2021/04/14 14:23:18;;;;;;;3.30;3.10;;;;;;;;;;5090487;28;20782;-52
2021/04/14 14:25:45;;;;;;;5.03;3.70;;;;;;;;;;5090414;28;20479;-55
2021/04/14 14:28:11;;;;;;;4.37;4.00;;;;;;;;;;5090487;28;20399;-53
2021/04/14 14:30:37;;;;;;;4.37;4.03;;;;;;;;;;5090704;28;20972;-52
2021/04/14 14:33:03;;;;;;;5.80;4.20;;;;;;;;;;5090321;28;20479;-53
2021/04/14 14:35:29;;;;;;;8.87;6.77;;;;;;;;;;5090337;28;20448;-52
2021/04/14 14:38:00;;;;;;;7.70;7.00;;;;;;;;;;5091212;28;20404;-52
2021/04/14 14:40:29;;;;;;;8.37;7.37;;;;;;;;;;5090527;28;20434;-52
2021/04/14 14:43:11;;;;;;;9.40;8.60;;;;;;;;;;5090640;28;20399;-51
2021/04/14 14:45:47;;;;;;;13.20;8.67;;;;;;;;;;5090227;28;20429;-53
2021/04/14 14:48:14;;;;;;;10.80;9.70;;;;;;;;;;5090542;28;20433;-52
2021/04/14 14:50:40;;;;;;;8.63;7.83;;;;;;;;;;5090437;28;20408;-52
2021/04/14 14:53:08;;;;;;;8.90;8.00;;;;;;;;;;5090462;28;20457;-53